Time;durP1;ratioP1;P1;durP2;ratioP2;P2;SDS_P1;SDS_P2;PMS_P1;PMS_P2;Temp;Humidity;BMP_temperature;BMP_pressure;BME280_temperature;BME280_humidity;BME280_pressure;Samples;Min_cycle;Max_cycle;Signal;HPM_P1;HPM_P2
2023/05/31 00:00:04;;;;;;;4.90;1.50;;;;;;;14.52;48.43;101893.13;7398402;19;20021;-65
2023/05/31 00:02:33;;;;;;;3.60;2.30;;;;;;;14.48;48.59;101884.41;7396939;19;20066;-65
2023/05/31 00:05:02;;;;;;;5.18;2.00;;;;;;;14.45;48.90;101892.38;7397827;19;20090;-65
2023/05/31 00:07:33;;;;;;;3.47;1.33;;;;;;;14.43;48.90;101894.19;7398484;19;20021;-65
2023/05/31 00:10:01;;;;;;;4.80;2.00;;;;;;;14.40;49.00;101893.38;7399694;19;20081;-65
2023/05/31 00:12:29;;;;;;;3.92;1.60;;;;;;;14.38;49.10;101897.81;7397817;19;20489;-64
2023/05/31 00:14:58;;;;;;;5.97;2.05;;;;;;;14.34;49.23;101904.91;7397696;19;20078;-65
2023/05/31 00:17:26;;;;;;;3.78;1.88;;;;;;;14.29;49.28;101902.38;7399566;19;20021;-65
2023/05/31 00:19:55;;;;;;;5.97;2.20;;;;;;;14.27;49.47;101900.66;7398933;19;20086;-65
2023/05/31 00:22:23;;;;;;;4.95;1.80;;;;;;;14.22;49.66;101905.16;7397143;19;20013;-65
2023/05/31 00:24:55;;;;;;;4.80;2.10;;;;;;;14.18;49.58;101902.56;7397048;19;20021;-65
2023/05/31 00:27:23;;;;;;;5.43;1.98;;;;;;;14.14;49.62;101898.25;7399181;19;20094;-65
2023/05/31 00:29:51;;;;;;;3.90;1.73;;;;;;;14.12;50.03;101904.44;7398726;19;20089;-65
2023/05/31 00:32:20;;;;;;;3.45;1.85;;;;;;;14.08;50.19;101895.72;7397133;19;20025;-63
2023/05/31 00:34:48;;;;;;;3.45;1.77;;;;;;;14.06;50.43;101899.28;7399408;19;20020;-64
2023/05/31 00:37:17;;;;;;;4.18;1.75;;;;;;;14.02;50.32;101906.38;7396553;19;20014;-64
2023/05/31 00:39:45;;;;;;;5.43;1.88;;;;;;;13.97;50.51;101909.09;7399203;19;20102;-65
2023/05/31 00:42:16;;;;;;;5.60;2.30;;;;;;;13.93;50.48;101911.81;7397903;19;20066;-66
2023/05/31 00:44:45;;;;;;;3.22;1.50;;;;;;;13.88;51.03;101905.75;7398130;19;20073;-66
2023/05/31 00:47:13;;;;;;;4.70;2.10;;;;;;;13.83;51.03;101900.56;7396086;19;20014;-65
2023/05/31 00:49:42;;;;;;;7.05;3.00;;;;;;;13.78;51.04;101905.88;7397727;19;20038;-65
2023/05/31 00:52:12;;;;;;;3.83;1.98;;;;;;;13.73;51.36;101910.38;7397273;19;20014;-65
2023/05/31 00:54:40;;;;;;;5.50;2.30;;;;;;;13.69;51.50;101906.06;7396288;19;20086;-65
2023/05/31 00:57:10;;;;;;;3.55;2.15;;;;;;;13.63;51.82;101909.66;7398244;19;20086;-65
2023/05/31 00:59:41;;;;;;;4.45;2.08;;;;;;;13.54;51.95;101904.53;7397169;19;20025;-65
2023/05/31 01:02:10;;;;;;;5.15;1.85;;;;;;;13.46;52.15;101899.38;7397754;19;20075;-65
2023/05/31 01:04:38;;;;;;;4.63;2.50;;;;;;;13.42;52.30;101895.06;7396374;19;20513;-65
2023/05/31 01:07:08;;;;;;;8.52;1.90;;;;;;;13.38;52.45;101901.25;7398100;19;20082;-65
2023/05/31 01:09:42;;;;;;;5.60;2.00;;;;;;;13.34;52.72;101895.13;7395695;19;20550;-65
2023/05/31 01:12:16;;;;;;;;;;;;;;;13.29;52.60;101901.34;7397598;19;20014;-65
2023/05/31 01:15:01;;;;;;;5.93;1.95;;;;;;;13.22;52.65;101897.06;7396933;19;20000;-66
2023/05/31 01:17:37;;;;;;;5.63;2.00;;;;;;;13.15;53.04;101904.19;7397609;19;20363;-67
2023/05/31 01:20:08;;;;;;;7.35;2.60;;;;;;;13.10;53.05;101903.38;7396834;19;20025;-66
2023/05/31 01:22:50;;;;;;;2.70;1.83;;;;;;;13.06;53.33;101906.97;7395937;19;20025;-69
2023/05/31 01:25:44;;;;;;;2.80;2.30;;;;;;;13.04;53.73;101906.97;7397840;19;20014;-66
2023/05/31 01:28:16;;;;;;;3.88;2.13;;;;;;;13.00;53.70;101907.91;7397624;19;20033;-66
2023/05/31 01:30:47;;;;;;;7.15;2.40;;;;;;;12.96;53.97;101907.06;7395836;19;20089;-66
2023/05/31 01:33:18;;;;;;;4.00;2.22;;;;;;;12.93;54.04;101903.59;7395060;19;20025;-66
2023/05/31 01:35:46;;;;;;;5.32;2.63;;;;;;;12.88;54.12;101909.81;7396605;19;20010;-67
2023/05/31 01:38:15;;;;;;;3.83;2.05;;;;;;;12.85;54.35;101904.59;7396886;19;20035;-67
2023/05/31 01:40:43;;;;;;;4.07;2.25;;;;;;;12.83;54.50;101909.00;7394708;19;20094;-67
2023/05/31 01:43:15;;;;;;;5.72;2.13;;;;;;;12.81;54.63;101912.53;7394627;19;20054;-67
2023/05/31 01:45:44;;;;;;;4.43;1.83;;;;;;;12.77;54.74;101911.69;7395434;19;20014;-67
2023/05/31 01:48:13;;;;;;;3.25;2.03;;;;;;;12.71;54.91;101917.91;7396630;19;20015;-67
2023/05/31 01:50:44;;;;;;;5.15;2.50;;;;;;;12.67;55.03;101910.94;7396092;19;20091;-67
2023/05/31 01:53:12;;;;;;;5.50;2.40;;;;;;;12.64;55.04;101920.66;7396323;19;20042;-67
2023/05/31 01:55:43;;;;;;;5.25;2.70;;;;;;;12.61;55.15;101918.03;7397037;19;20019;-68
2023/05/31 01:58:15;;;;;;;6.43;2.30;;;;;;;12.59;55.56;101915.44;7397066;19;20021;-67
2023/05/31 02:00:44;;;;;;;3.85;2.30;;;;;;;12.56;55.59;101910.19;7394070;19;20014;-67
2023/05/31 02:03:13;;;;;;;4.22;2.67;;;;;;;12.52;55.62;101917.25;7395599;19;20446;-67
2023/05/31 02:05:57;;;;;;;6.20;2.33;;;;;;;12.47;55.86;101913.81;7396015;19;20422;-67
2023/05/31 02:08:33;;;;;;;4.07;2.38;;;;;;;12.42;55.84;101905.06;7396105;19;20018;-67
2023/05/31 02:11:01;;;;;;;6.15;2.45;;;;;;;12.37;56.08;101905.13;7393991;19;20114;-67
2023/05/31 02:13:33;;;;;;;4.25;2.85;;;;;;;12.33;56.23;101906.06;7394158;19;20090;-67
2023/05/31 02:16:03;;;;;;;3.72;2.00;;;;;;;12.31;56.30;101905.19;7395193;19;20070;-67
2023/05/31 02:18:32;;;;;;;8.07;2.47;;;;;;;12.27;56.44;101910.50;7395900;19;20015;-67
2023/05/31 02:21:00;;;;;;;4.65;2.35;;;;;;;12.23;56.71;101909.66;7394036;19;20015;-67
2023/05/31 02:23:29;;;;;;;6.80;2.97;;;;;;;12.19;56.61;101908.81;7394642;19;20496;-67
2023/05/31 02:25:57;;;;;;;5.38;2.20;;;;;;;12.15;56.79;101903.63;7395109;19;20031;-67
2023/05/31 02:28:26;;;;;;;8.75;2.47;;;;;;;12.12;57.12;101904.50;7395089;19;20022;-66
2023/05/31 02:31:01;;;;;;;6.93;2.65;;;;;;;12.06;57.06;101905.44;7393501;19;20020;-67
2023/05/31 02:33:30;;;;;;;6.72;2.50;;;;;;;12.05;57.14;101915.97;7394068;19;20018;-67
2023/05/31 02:35:59;;;;;;;6.95;2.75;;;;;;;11.99;57.13;101908.13;7393433;19;20090;-66
2023/05/31 02:38:28;;;;;;;4.65;2.67;;;;;;;11.94;57.39;101907.28;7393361;19;20037;-66
2023/05/31 02:40:57;;;;;;;6.53;2.92;;;;;;;11.90;57.65;101907.31;7392544;19;20089;-67
2023/05/31 02:43:25;;;;;;;4.40;2.60;;;;;;;11.86;57.61;101910.84;7394800;19;20085;-67
2023/05/31 02:45:54;;;;;;;4.35;2.60;;;;;;;11.80;57.80;101905.63;7393052;19;20023;-67
2023/05/31 02:48:25;;;;;;;3.65;2.20;;;;;;;11.75;57.88;101904.78;7392990;19;20078;-67
2023/05/31 02:50:53;;;;;;;7.28;2.83;;;;;;;11.69;58.10;101907.47;7392494;19;20481;-67
2023/05/31 02:53:22;;;;;;;5.82;2.60;;;;;;;11.63;58.25;101912.78;7392632;19;20085;-67
2023/05/31 02:55:51;;;;;;;15.07;3.05;;;;;;;11.58;58.37;101904.94;7394166;19;20011;-66
2023/05/31 02:58:19;;;;;;;8.00;2.50;;;;;;;11.53;58.53;101909.34;7394392;19;20428;-67
2023/05/31 03:00:47;;;;;;;5.55;2.60;;;;;;;11.48;58.57;101908.50;7392475;19;20018;-67
2023/05/31 03:03:25;;;;;;;5.75;2.75;;;;;;;11.43;59.18;101905.06;7394370;19;20019;-67
2023/05/31 03:05:54;;;;;;;4.22;2.35;;;;;;;11.36;59.03;101910.34;7391815;19;20011;-67
2023/05/31 03:08:22;;;;;;;5.38;2.80;;;;;;;11.32;59.40;101905.09;7392105;19;20014;-67
2023/05/31 03:10:51;;;;;;;5.82;3.33;;;;;;;11.25;59.47;101905.13;7391903;19;20398;-67
2023/05/31 03:13:19;;;;;;;5.07;2.70;;;;;;;11.21;59.64;101908.69;7392419;19;20074;-66
2023/05/31 03:15:47;;;;;;;3.75;2.63;;;;;;;11.18;59.86;101907.81;7394061;19;20014;-67
2023/05/31 03:18:16;;;;;;;4.05;2.67;;;;;;;11.12;60.01;101910.47;7391521;19;20086;-67
2023/05/31 03:20:47;;;;;;;4.97;2.70;;;;;;;11.07;60.10;101903.50;7391711;19;20084;-67
2023/05/31 03:23:16;;;;;;;4.75;2.60;;;;;;;11.03;60.18;101912.28;7392228;19;20019;-67
2023/05/31 03:25:44;;;;;;;4.40;2.35;;;;;;;11.00;60.36;101906.16;7393588;19;20019;-67
2023/05/31 03:28:13;;;;;;;7.60;2.95;;;;;;;10.96;60.56;101900.06;7393734;19;20019;-67
2023/05/31 03:30:41;;;;;;;7.07;2.97;;;;;;;10.92;60.55;101908.84;7391922;19;20034;-67
2023/05/31 03:33:10;;;;;;;7.30;2.88;;;;;;;10.88;60.69;101901.81;7392449;19;20014;-67
2023/05/31 03:35:38;;;;;;;5.80;2.67;;;;;;;10.87;60.89;101905.34;7392147;19;20017;-67
2023/05/31 03:38:10;;;;;;;10.00;2.90;;;;;;;10.82;60.96;101902.75;7400115;19;20380;-67
2023/05/31 03:40:38;;;;;;;6.97;2.60;;;;;;;10.79;61.11;101907.97;7397953;19;20370;-67
2023/05/31 03:43:07;;;;;;;8.75;3.13;;;;;;;10.76;61.33;101905.38;7398101;19;20098;-66
2023/05/31 03:45:35;;;;;;;7.63;3.60;;;;;;;10.73;61.48;101895.78;7400111;19;20083;-66
2023/05/31 03:48:04;;;;;;;5.00;2.65;;;;;;;10.71;61.67;101899.28;7400107;19;20082;-66
2023/05/31 03:50:32;;;;;;;5.38;2.55;;;;;;;10.65;61.74;101904.56;7398683;19;20042;-66
2023/05/31 03:53:01;;;;;;;6.13;2.70;;;;;;;10.66;61.86;101903.69;7398623;19;20074;-66
2023/05/31 03:55:32;;;;;;;6.15;2.53;;;;;;;10.66;62.02;101906.31;7397441;19;20379;-66
2023/05/31 03:58:00;;;;;;;5.72;3.13;;;;;;;10.65;61.87;101902.78;7400288;19;20070;-67
2023/05/31 04:00:29;;;;;;;6.63;2.75;;;;;;;10.68;62.11;101899.28;7397975;19;20022;-67
2023/05/31 04:02:57;;;;;;;5.53;2.72;;;;;;;10.70;62.13;101903.69;7399722;19;20115;-66
2023/05/31 04:05:26;;;;;;;6.97;2.90;;;;;;;10.72;62.02;101899.28;7396947;19;20481;-65
2023/05/31 04:07:54;;;;;;;4.05;2.42;;;;;;;10.72;62.42;101903.66;7399560;19;20031;-67
2023/05/31 04:10:23;;;;;;;6.05;2.90;;;;;;;10.73;62.31;101897.53;7397049;19;20032;-67
2023/05/31 04:12:54;;;;;;;4.63;2.85;;;;;;;10.75;62.36;101901.00;7398284;19;20084;-67
2023/05/31 04:15:22;;;;;;;5.07;2.85;;;;;;;10.78;62.20;101906.28;7399159;19;20481;-67
2023/05/31 04:17:51;;;;;;;5.70;2.58;;;;;;;10.80;62.39;101898.38;7396684;19;20485;-67
2023/05/31 04:20:20;;;;;;;6.82;2.50;;;;;;;10.82;62.48;101899.25;7396787;19;20019;-66
2023/05/31 04:22:48;;;;;;;5.72;2.30;;;;;;;10.83;62.50;101894.00;7396804;19;20019;-67
2023/05/31 04:25:17;;;;;;;4.15;2.25;;;;;;;10.86;62.49;101899.22;7396703;19;20039;-66
2023/05/31 04:27:46;;;;;;;7.88;2.40;;;;;;;10.89;62.43;101898.31;7398760;19;20081;-66
2023/05/31 04:30:17;;;;;;;5.35;2.60;;;;;;;10.93;62.51;101897.41;7396556;19;20023;-66
2023/05/31 04:32:50;;;;;;;5.85;2.65;;;;;;;10.98;62.45;101900.94;7395925;19;20485;-66
2023/05/31 04:35:18;;;;;;;5.20;2.80;;;;;;;11.01;62.50;101902.66;7399004;19;20532;-67
2023/05/31 04:37:48;;;;;;;4.97;2.83;;;;;;;11.03;62.38;101908.75;7397787;19;20015;-67
2023/05/31 04:40:16;;;;;;;7.53;3.13;;;;;;;11.04;62.38;101894.75;7396735;19;20022;-67
2023/05/31 04:42:45;;;;;;;6.40;2.97;;;;;;;11.06;62.39;101901.75;7396283;19;20420;-67
2023/05/31 04:45:15;;;;;;;4.28;2.33;;;;;;;11.08;62.40;101899.09;7395506;19;20028;-67
2023/05/31 04:47:46;;;;;;;5.75;2.75;;;;;;;11.12;62.44;101911.38;7397935;19;20042;-67
2023/05/31 04:50:15;;;;;;;4.65;2.80;;;;;;;11.19;62.25;101906.94;7396527;19;20014;-66
2023/05/31 04:52:44;;;;;;;4.50;2.50;;;;;;;11.21;62.21;101906.03;7395741;19;20014;-67
2023/05/31 04:55:12;;;;;;;5.40;2.67;;;;;;;11.26;62.25;101903.41;7397932;19;20011;-67
2023/05/31 04:57:41;;;;;;;6.45;3.05;;;;;;;11.30;62.09;101909.47;7397500;19;20022;-67
2023/05/31 05:00:15;;;;;;;5.47;2.80;;;;;;;11.37;62.09;101905.94;7395891;19;20011;-66
2023/05/31 05:02:46;;;;;;;25.48;12.18;;;;;;;11.44;61.95;101907.66;7395602;19;20014;-67
2023/05/31 05:05:15;;;;;;;27.33;16.05;;;;;;;11.46;61.88;101895.41;7396706;19;20027;-66
2023/05/31 05:07:44;;;;;;;6.53;2.80;;;;;;;11.57;61.86;101914.59;7393816;19;20393;-67
2023/05/31 05:10:13;;;;;;;6.97;3.08;;;;;;;11.62;61.88;101908.41;7395379;19;20014;-66
2023/05/31 05:12:41;;;;;;;8.77;2.70;;;;;;;11.66;61.75;101908.34;7395575;19;20112;-67
2023/05/31 05:15:10;;;;;;;5.15;2.40;;;;;;;11.70;61.74;101909.22;7396213;19;20035;-67
2023/05/31 05:17:39;;;;;;;6.88;2.60;;;;;;;11.74;61.71;101910.97;7393946;19;20039;-66
2023/05/31 05:20:12;;;;;;;5.22;2.90;;;;;;;11.77;61.66;101905.66;7393310;19;20018;-66
2023/05/31 05:22:41;;;;;;;5.35;2.42;;;;;;;11.81;61.44;101904.75;7393172;19;20134;-67
2023/05/31 05:25:10;;;;;;;4.88;2.33;;;;;;;11.87;61.12;101902.06;7396184;19;20068;-67
2023/05/31 05:27:39;;;;;;;19.10;7.38;;;;;;;11.95;61.10;101906.41;7396390;19;20018;-66
2023/05/31 05:30:10;;;;;;;7.32;2.85;;;;;;;12.03;60.97;101901.94;7394025;19;20022;-66
2023/05/31 05:32:38;;;;;;;7.65;2.92;;;;;;;12.09;60.58;101901.91;7396441;19;20018;-65
2023/05/31 05:35:10;;;;;;;4.88;2.95;;;;;;;12.16;60.43;101903.59;7393532;19;20018;-66
2023/05/31 05:37:38;;;;;;;7.38;2.83;;;;;;;12.25;60.38;101907.91;7394058;19;20414;-67
2023/05/31 05:40:09;;;;;;;4.70;2.28;;;;;;;12.31;59.97;101909.56;7393634;19;20082;-66
2023/05/31 05:42:38;;;;;;;6.10;2.50;;;;;;;12.37;59.93;101910.41;7393248;19;20378;-66
2023/05/31 05:45:09;;;;;;;5.75;2.45;;;;;;;12.44;59.72;101902.44;7394707;19;20022;-65
2023/05/31 05:47:38;;;;;;;8.85;3.30;;;;;;;12.51;59.58;101907.63;7395677;19;20014;-66
2023/05/31 05:50:10;;;;;;;6.43;2.40;;;;;;;12.58;59.41;101911.03;7394338;19;20024;-66
2023/05/31 05:52:39;;;;;;;5.68;2.30;;;;;;;12.64;59.41;101903.06;7396355;19;20018;-67
2023/05/31 05:55:08;;;;;;;4.47;2.05;;;;;;;12.72;59.27;101910.88;7395259;19;20074;-66
2023/05/31 05:57:36;;;;;;;7.47;2.20;;;;;;;12.80;59.01;101908.16;7395436;19;20024;-66
2023/05/31 06:00:11;;;;;;;9.05;2.58;;;;;;;12.87;59.10;101909.81;7393147;19;20034;-68
2023/05/31 06:02:40;;;;;;;6.82;2.10;;;;;;;12.93;59.03;101906.22;7394906;19;20477;-67
2023/05/31 06:05:12;;;;;;;5.60;2.05;;;;;;;12.99;58.75;101908.78;7395445;19;20019;-66
2023/05/31 06:07:40;;;;;;;5.47;2.20;;;;;;;13.05;58.78;101908.69;7394451;19;20022;-66
2023/05/31 06:10:10;;;;;;;7.38;2.38;;;;;;;13.12;58.83;101912.16;7394283;19;20027;-67
2023/05/31 06:12:39;;;;;;;6.63;2.58;;;;;;;13.18;58.47;101909.41;7395490;19;20419;-66
2023/05/31 06:15:09;;;;;;;4.70;2.63;;;;;;;13.25;58.51;101907.56;7395202;19;20031;-67
2023/05/31 06:17:38;;;;;;;6.85;2.65;;;;;;;13.31;58.23;101908.34;7394303;19;20014;-66
2023/05/31 06:20:10;;;;;;;6.15;2.80;;;;;;;13.38;58.33;101906.50;7393435;19;20018;-67
2023/05/31 06:22:41;;;;;;;8.98;3.65;;;;;;;13.47;58.32;101906.41;7394635;19;20027;-66
2023/05/31 06:25:10;;;;;;;8.27;2.45;;;;;;;13.56;57.98;101902.75;7393229;19;20083;-66
2023/05/31 06:27:39;;;;;;;5.93;2.20;;;;;;;13.64;57.85;101906.13;7393144;19;20018;-66
2023/05/31 06:30:09;;;;;;;4.63;2.60;;;;;;;13.72;57.65;101908.63;7393951;19;20104;-67
2023/05/31 06:32:38;;;;;;;8.25;2.15;;;;;;;13.82;57.36;101909.34;7393049;19;20019;-66
2023/05/31 06:35:07;;;;;;;5.63;2.42;;;;;;;13.91;57.20;101898.63;7392999;19;20022;-67
2023/05/31 06:37:37;;;;;;;8.85;2.28;;;;;;;13.98;56.88;101902.91;7394508;19;20040;-66
2023/05/31 06:40:09;;;;;;;4.47;2.05;;;;;;;14.07;56.65;101908.94;7394633;19;20022;-66
2023/05/31 06:42:38;;;;;;;7.53;2.50;;;;;;;14.13;56.38;101904.41;7391882;19;20040;-66
2023/05/31 06:45:08;;;;;;;4.68;2.20;;;;;;;14.21;56.21;101900.78;7394178;19;20023;-67
2023/05/31 06:47:36;;;;;;;6.07;2.10;;;;;;;14.29;56.12;101904.13;7392679;19;20028;-67
2023/05/31 06:50:05;;;;;;;5.30;3.08;;;;;;;14.36;55.90;101904.91;7392750;19;20031;-67
2023/05/31 06:52:33;;;;;;;5.35;2.33;;;;;;;14.44;55.90;101895.06;7393874;19;20025;-67
2023/05/31 06:55:02;;;;;;;6.53;2.63;;;;;;;14.55;55.67;101892.22;7391736;19;20361;-67
2023/05/31 06:57:33;;;;;;;5.88;2.50;;;;;;;14.63;55.37;101893.78;7393666;19;20019;-66
2023/05/31 07:00:03;;;;;;;6.03;2.20;;;;;;;14.72;55.15;101892.78;7392622;19;20035;-65
2023/05/31 07:02:31;;;;;;;5.57;2.40;;;;;;;14.83;54.73;101889.88;7393684;19;20015;-67
2023/05/31 07:05:00;;;;;;;5.07;2.20;;;;;;;14.94;54.79;101893.16;7392052;19;20031;-67
2023/05/31 07:07:29;;;;;;;8.13;3.17;;;;;;;15.04;54.47;101885.91;7393266;19;20481;-67
2023/05/31 07:09:57;;;;;;;5.90;2.70;;;;;;;15.16;53.96;101890.03;7391827;19;20015;-66
2023/05/31 07:12:26;;;;;;;7.35;2.63;;;;;;;15.26;53.84;101885.44;7397692;19;20082;-67
2023/05/31 07:14:57;;;;;;;3.92;2.22;;;;;;;15.36;53.67;101886.94;7398681;19;20018;-65
2023/05/31 07:17:25;;;;;;;13.05;2.92;;;;;;;15.44;53.41;101879.72;7401371;19;20018;-66
2023/05/31 07:19:54;;;;;;;7.93;2.33;;;;;;;15.55;53.44;101882.06;7399740;19;20023;-65
2023/05/31 07:22:22;;;;;;;13.95;7.45;;;;;;;15.65;52.95;101880.09;7400493;19;20019;-65
2023/05/31 07:24:51;;;;;;;7.20;3.35;;;;;;;15.76;52.91;101877.19;7399986;19;20116;-67
2023/05/31 07:27:21;;;;;;;5.88;3.00;;;;;;;15.87;52.51;101871.63;7397463;19;20099;-66
2023/05/31 07:29:50;;;;;;;5.80;3.53;;;;;;;15.97;52.35;101875.75;7399486;19;20022;-66
2023/05/31 07:32:21;;;;;;;5.53;3.10;;;;;;;16.08;52.00;101876.34;7400046;19;20487;-66
2023/05/31 07:34:49;;;;;;;4.93;2.53;;;;;;;16.20;51.74;101874.28;7398705;19;20014;-66
2023/05/31 07:37:18;;;;;;;5.13;2.20;;;;;;;16.30;51.55;101867.81;7397070;19;20010;-66
2023/05/31 07:39:47;;;;;;;8.20;2.28;;;;;;;16.40;51.13;101869.31;7397217;19;20399;-65
2023/05/31 07:42:15;;;;;;;5.13;2.50;;;;;;;16.53;51.05;101871.59;7397932;19;20512;-66
2023/05/31 07:44:44;;;;;;;6.85;1.95;;;;;;;16.64;50.68;101871.31;7400043;19;20513;-65
2023/05/31 07:47:13;;;;;;;6.53;2.30;;;;;;;16.74;50.56;101878.06;7397329;19;20506;-65
2023/05/31 07:49:51;;;;;;;8.20;2.65;;;;;;;16.83;50.17;101869.81;7397579;19;20477;-65
2023/05/31 07:52:21;;;;;;;3.88;2.25;;;;;;;16.92;49.86;101864.28;7400375;19;20019;-65
2023/05/31 07:54:50;;;;;;;6.53;2.60;;;;;;;17.02;49.73;101867.53;7397519;19;20026;-67
2023/05/31 07:57:19;;;;;;;4.57;2.08;;;;;;;17.09;49.38;101857.59;7397555;19;20019;-65
2023/05/31 07:59:47;;;;;;;6.35;2.08;;;;;;;17.21;48.98;101851.91;7396701;19;20086;-65
2023/05/31 08:02:16;;;;;;;6.78;2.08;;;;;;;17.30;48.88;101853.41;7396366;19;20426;-65
2023/05/31 08:04:47;;;;;;;5.15;2.40;;;;;;;17.41;48.86;101850.38;7396430;19;20445;-65
2023/05/31 08:07:15;;;;;;;7.75;2.10;;;;;;;17.51;48.76;101846.50;7399867;19;20072;-66
2023/05/31 08:09:44;;;;;;;4.50;1.73;;;;;;;17.60;48.21;101845.34;7398656;19;20029;-66
2023/05/31 08:12:13;;;;;;;5.18;2.28;;;;;;;17.71;48.09;101831.72;7399040;19;20026;-65
2023/05/31 08:14:41;;;;;;;3.92;1.85;;;;;;;17.82;46.99;101834.88;7397730;19;20086;-66
2023/05/31 08:17:09;;;;;;;6.10;1.80;;;;;;;17.93;47.03;101839.78;7396463;19;20389;-66
2023/05/31 08:19:38;;;;;;;5.30;1.80;;;;;;;18.04;46.64;101840.28;7396632;19;20018;-66
2023/05/31 08:22:09;;;;;;;4.70;1.63;;;;;;;18.14;46.28;101838.19;7395918;19;20090;-66
2023/05/31 08:24:38;;;;;;;4.97;1.73;;;;;;;18.21;45.68;101830.84;7397584;19;20479;-66
2023/05/31 08:27:07;;;;;;;8.55;2.63;;;;;;;18.30;45.42;101827.88;7398745;19;20083;-66
2023/05/31 08:29:36;;;;;;;5.38;1.48;;;;;;;18.38;44.97;101828.44;7396039;19;20034;-69
2023/05/31 08:32:05;;;;;;;4.47;1.60;;;;;;;18.47;44.63;101829.03;7399003;19;20014;-66
2023/05/31 08:34:33;;;;;;;4.80;1.38;;;;;;;18.57;43.80;101835.72;7397400;19;20533;-66
2023/05/31 08:37:11;;;;;;;5.88;1.90;;;;;;;18.69;42.86;101834.38;7398548;19;20022;-67
2023/05/31 08:39:39;;;;;;;2.80;1.77;;;;;;;18.80;43.50;101829.50;7397473;19;20387;-66
2023/05/31 08:42:26;;;;;;;3.45;2.15;;;;;;;18.91;42.87;101834.47;7396271;19;20082;-66
2023/05/31 08:45:01;;;;;;;4.97;1.77;;;;;;;19.03;42.54;101822.44;7396694;19;20031;-67
2023/05/31 08:47:38;;;;;;;3.08;1.60;;;;;;;19.16;42.82;101829.00;7396066;19;20056;-65
2023/05/31 08:50:09;;;;;;;5.15;1.67;;;;;;;19.27;42.58;101825.03;7397125;19;20022;-66
2023/05/31 08:52:41;;;;;;;4.38;2.03;;;;;;;19.40;42.43;101830.72;7397211;19;20024;-66
2023/05/31 08:55:10;;;;;;;3.13;1.80;;;;;;;19.48;42.17;101825.97;7395575;19;20070;-65
2023/05/31 08:57:40;;;;;;;5.35;1.80;;;;;;;19.57;42.06;101822.03;7397678;19;20026;-65
2023/05/31 09:00:10;;;;;;;3.97;1.55;;;;;;;19.66;41.77;101811.88;7396218;19;20014;-67
2023/05/31 09:02:39;;;;;;;4.20;1.70;;;;;;;19.75;41.33;101815.06;7398718;19;20481;-69
2023/05/31 09:05:11;;;;;;;4.28;1.70;;;;;;;19.83;41.16;101812.97;7396644;19;20032;-66
2023/05/31 09:07:42;;;;;;;2.67;1.40;;;;;;;19.93;40.81;101808.97;7395426;19;20079;-67
2023/05/31 09:10:13;;;;;;;6.85;2.08;;;;;;;20.01;40.75;101801.47;7394616;19;20417;-66
2023/05/31 09:12:42;;;;;;;2.83;1.70;;;;;;;20.07;40.63;101796.81;7394813;19;20019;-66
2023/05/31 09:15:15;;;;;;;8.82;3.75;;;;;;;20.18;40.15;101799.84;7394126;19;20078;-66
2023/05/31 09:17:46;;;;;;;32.50;20.88;;;;;;;20.27;39.95;101802.13;7395150;19;20022;-66
2023/05/31 09:20:16;;;;;;;6.45;3.00;;;;;;;20.37;40.01;101801.69;7395474;19;20342;-66
2023/05/31 09:22:49;;;;;;;4.20;2.42;;;;;;;20.46;39.14;101793.25;7396430;19;20042;-67
2023/05/31 09:25:18;;;;;;;7.82;4.07;;;;;;;20.58;39.05;101798.00;7396526;19;20041;-66
2023/05/31 09:27:46;;;;;;;4.15;1.90;;;;;;;20.67;38.56;101792.25;7394300;19;20022;-66
2023/05/31 09:30:17;;;;;;;2.58;1.52;;;;;;;20.74;38.22;101783.97;7395227;19;20077;-66
2023/05/31 09:32:55;;;;;;;5.20;1.40;;;;;;;20.80;37.41;101789.88;7395717;19;20567;-66
2023/05/31 09:35:27;;;;;;;7.75;4.47;;;;;;;20.88;37.56;101789.50;7392580;19;20014;-67
2023/05/31 09:37:58;;;;;;;3.78;2.28;;;;;;;20.96;36.38;101787.31;7394309;19;20015;-66
2023/05/31 09:40:28;;;;;;;3.33;1.40;;;;;;;21.02;36.60;101786.16;7394677;19;20087;-66
2023/05/31 09:42:56;;;;;;;2.78;1.60;;;;;;;21.07;36.63;101785.94;7393469;19;20010;-66
2023/05/31 09:45:28;;;;;;;4.95;1.83;;;;;;;21.11;36.32;101782.19;7393818;19;20014;-67
2023/05/31 09:47:56;;;;;;;4.07;1.30;;;;;;;21.16;36.22;101774.81;7393580;19;20462;-66
2023/05/31 09:50:27;;;;;;;5.97;1.80;;;;;;;21.20;35.99;101771.03;7398694;19;20035;-65
2023/05/31 09:53:00;;;;;;;3.63;1.52;;;;;;;21.24;35.50;101764.59;7396314;19;20481;-66
2023/05/31 09:55:41;;;;;;;3.45;1.75;;;;;;;21.30;35.52;101756.28;7394639;19;20024;-67
2023/05/31 09:58:10;;;;;;;4.25;1.40;;;;;;;21.37;35.27;101762.19;7394782;19;20363;-66
2023/05/31 10:00:47;;;;;;;3.63;1.65;;;;;;;21.44;35.01;101757.41;7393321;19;20029;-66
2023/05/31 10:03:15;;;;;;;1.98;1.40;;;;;;;21.48;35.21;101761.63;7395904;19;20014;-64
2023/05/31 10:05:44;;;;;;;4.30;1.65;;;;;;;21.54;35.25;101752.44;7394991;19;20090;-66
2023/05/31 10:08:15;;;;;;;4.20;1.80;;;;;;;21.61;34.96;101754.75;7393837;19;20042;-67
2023/05/31 10:10:44;;;;;;;5.00;1.80;;;;;;;21.71;34.48;101744.44;7393660;19;20018;-67
2023/05/31 10:13:16;;;;;;;2.80;1.40;;;;;;;21.78;34.22;101745.81;7393471;19;20088;-67
2023/05/31 10:15:47;;;;;;;2.35;1.10;;;;;;;21.86;34.10;101736.56;7393274;19;20022;-68
2023/05/31 10:18:18;;;;;;;1.92;1.38;;;;;;;21.92;33.91;101741.56;7395000;19;20085;-68
2023/05/31 10:20:52;;;;;;;5.32;1.75;;;;;;;21.98;33.59;101730.56;7392611;19;20015;-67
2023/05/31 10:23:25;;;;;;;3.22;1.27;;;;;;;22.07;33.69;101734.53;7393004;19;20407;-67
2023/05/31 10:26:06;;;;;;;4.07;1.95;;;;;;;22.17;33.46;101730.41;7393026;19;20042;-68
2023/05/31 10:28:40;;;;;;;5.20;2.35;;;;;;;22.26;33.46;101729.88;7393588;19;20018;-67
2023/05/31 10:31:11;;;;;;;2.28;1.52;;;;;;;22.35;33.19;101728.50;7392548;19;20024;-65
2023/05/31 10:33:48;;;;;;;6.20;1.80;;;;;;;22.39;33.05;101718.53;7392521;19;20050;-67
2023/05/31 10:36:18;;;;;;;4.57;1.90;;;;;;;22.41;33.22;101722.00;7392915;19;20026;-68
2023/05/31 10:38:57;;;;;;;5.15;1.73;;;;;;;22.41;32.52;101717.50;7393618;19;20310;-67
2023/05/31 10:41:30;;;;;;;4.80;1.38;;;;;;;22.45;32.80;101718.19;7392442;19;20591;-67
2023/05/31 10:44:00;;;;;;;;;;;;;;;22.47;32.48;101712.75;7392933;19;20019;-69
2023/05/31 10:46:30;;;;;;;4.03;1.38;;;;;;;22.51;32.87;101715.19;7400983;19;19946;-69
2023/05/31 10:49:01;;;;;;;6.15;1.67;;;;;;;22.58;32.50;101702.31;7401837;19;20026;-68
2023/05/31 10:51:44;;;;;;;5.07;1.50;;;;;;;22.68;31.95;101708.84;7398971;19;20014;-67
2023/05/31 10:54:20;;;;;;;3.78;1.70;;;;;;;22.78;31.63;101709.19;7398460;19;20086;-67
2023/05/31 10:56:55;;;;;;;3.53;1.73;;;;;;;22.82;30.83;101693.81;7398573;19;20038;-67
2023/05/31 10:59:25;;;;;;;3.83;1.70;;;;;;;22.93;30.98;101696.72;7400978;19;20025;-66
2023/05/31 11:01:54;;;;;;;2.83;1.60;;;;;;;23.02;30.81;101696.16;7398104;19;20015;-66
2023/05/31 11:04:24;;;;;;;6.28;1.75;;;;;;;23.06;30.13;101696.84;7400754;19;20018;-65
2023/05/31 11:06:55;;;;;;;4.70;1.20;;;;;;;23.14;29.63;101697.28;7400836;19;20369;-66
2023/05/31 11:09:26;;;;;;;3.45;1.27;;;;;;;23.23;29.32;101686.03;7398117;19;20022;-67
2023/05/31 11:11:59;;;;;;;4.13;1.70;;;;;;;23.32;29.44;101686.44;7401353;19;20026;-65
2023/05/31 11:14:30;;;;;;;2.75;1.35;;;;;;;23.42;29.64;101692.97;7398494;19;20015;-70
2023/05/31 11:17:17;;;;;;;4.05;1.48;;;;;;;23.51;29.66;101683.50;7397208;19;20074;-67
2023/05/31 11:19:53;;;;;;;3.10;1.55;;;;;;;23.57;29.50;101683.13;7397748;19;20022;-67
2023/05/31 11:22:27;;;;;;;8.25;1.60;;;;;;;23.64;29.01;101683.59;7397372;19;20035;-66
2023/05/31 11:25:00;;;;;;;3.92;1.75;;;;;;;23.72;29.29;101687.50;7397005;19;20014;-67
2023/05/31 11:27:39;;;;;;;4.75;2.03;;;;;;;23.83;29.46;101670.75;7396496;19;20014;-66
2023/05/31 11:30:10;;;;;;;3.72;1.55;;;;;;;23.96;29.42;101683.41;7396654;19;20018;-66
2023/05/31 11:32:57;;;;;;;5.25;1.85;;;;;;;24.10;29.31;101677.16;7397822;19;20014;-66
2023/05/31 11:35:27;;;;;;;5.00;1.42;;;;;;;24.30;29.20;101663.34;7396695;19;20074;-67
2023/05/31 11:38:07;;;;;;;2.85;1.50;;;;;;;24.54;28.62;101665.34;7397642;19;20018;-66